createdAt,value
2019-01-16T00:00:16.429Z,4.36
2019-01-16T00:03:07.941Z,4.36
2019-01-16T00:05:58.590Z,4.36
2019-01-16T00:08:47.031Z,4.31
2019-01-16T00:11:43.620Z,4.43
2019-01-16T00:14:37.311Z,4.35
2019-01-16T00:17:26.920Z,4.34
2019-01-16T00:20:13.640Z,4.38
2019-01-16T00:23:04.583Z,4.45
2019-01-16T00:25:58.370Z,4.40
2019-01-16T00:28:49.003Z,4.47
2019-01-16T00:31:33.282Z,4.47
2019-01-16T00:34:28.592Z,4.56
2019-01-16T00:37:10.949Z,4.57
2019-01-16T00:40:04.435Z,4.64
2019-01-16T00:43:10.281Z,4.73
2019-01-16T00:46:06.112Z,4.73
2019-01-16T00:49:02.539Z,4.79
2019-01-16T00:52:09.106Z,4.73
2019-01-16T01:27:01.688Z,4.84
2019-01-16T01:30:04.542Z,4.83
2019-01-16T01:32:54.691Z,4.86
2019-01-16T01:35:51.406Z,4.87
2019-01-16T01:38:41.290Z,4.90
2019-01-16T01:41:30.430Z,4.91
2019-01-16T01:44:20.291Z,5.08
2019-01-16T01:47:12.630Z,5.08
2019-01-16T01:50:22.066Z,5.03
2019-01-16T01:53:03.089Z,5.00
2019-01-16T01:55:50.617Z,5.05
2019-01-16T01:58:30.663Z,5.05
2019-01-16T02:01:20.287Z,5.08
2019-01-16T02:04:12.403Z,5.08
2019-01-16T02:07:12.284Z,5.20
2019-01-16T02:10:07.458Z,5.20
2019-01-16T02:13:07.478Z,5.15
2019-01-16T02:15:58.299Z,5.13
2019-01-16T02:18:47.504Z,5.13
2019-01-16T02:21:47.879Z,5.08
2019-01-16T02:24:31.674Z,5.06
2019-01-16T02:27:23.368Z,5.03
2019-01-16T02:30:12.353Z,5.13
2019-01-16T02:33:05.116Z,5.13
2019-01-16T02:36:10.063Z,5.13
2019-01-16T02:39:13.154Z,5.03
2019-01-16T02:42:11.553Z,5.10
2019-01-16T02:45:08.457Z,5.09
2019-01-16T02:48:01.931Z,5.05
2019-01-16T02:51:02.278Z,5.05
2019-01-16T02:53:54.315Z,5.10
2019-01-16T02:56:43.597Z,5.07
2019-01-16T02:59:33.419Z,5.01
2019-01-16T03:02:24.084Z,4.93
2019-01-16T03:05:23.988Z,4.93
2019-01-16T03:08:02.953Z,4.96
2019-01-16T03:10:43.798Z,4.92
2019-01-16T03:13:39.118Z,4.95
2019-01-16T03:16:41.263Z,5.02
2019-01-16T03:19:36.602Z,4.99
2019-01-16T03:22:30.574Z,5.00
2019-01-16T03:25:22.455Z,5.05
2019-01-16T03:28:15.743Z,4.98
2019-01-16T03:31:09.560Z,4.98
2019-01-16T03:34:03.369Z,5.02
2019-01-16T03:36:56.882Z,5.04
2019-01-16T03:39:56.641Z,5.09
2019-01-16T03:42:46.406Z,5.10
2019-01-16T03:45:31.628Z,5.08
2019-01-16T03:48:28.533Z,5.08
2019-01-16T03:51:28.954Z,5.07
2019-01-16T03:54:25.954Z,5.18
2019-01-16T03:57:15.785Z,5.21
2019-01-16T04:00:05.657Z,5.15
2019-01-16T04:02:56.389Z,5.17
2019-01-16T04:05:39.431Z,5.12
2019-01-16T04:08:29.958Z,5.11
2019-01-16T04:11:09.311Z,5.11
2019-01-16T04:14:01.565Z,5.13
2019-01-16T04:17:01.148Z,5.15
2019-01-16T04:20:05.639Z,5.13
2019-01-16T04:22:53.322Z,5.13
2019-01-16T04:25:53.533Z,5.12
2019-01-16T04:28:43.075Z,5.21
2019-01-16T04:31:33.674Z,5.21
2019-01-16T04:34:33.738Z,5.10
2019-01-16T04:37:17.297Z,5.09
2019-01-16T04:40:09.443Z,5.05
2019-01-16T04:43:06.378Z,5.12
2019-01-16T04:45:58.955Z,5.20
2019-01-16T04:48:56.161Z,5.20
2019-01-16T04:52:00.682Z,5.09
2019-01-16T04:54:57.445Z,5.09
2019-01-16T04:57:47.285Z,5.03
2019-01-16T05:00:42.483Z,5.03
2019-01-16T05:03:35.878Z,4.95
2019-01-16T05:06:29.372Z,4.95
2019-01-16T05:09:29.399Z,5.01
2019-01-16T05:12:12.261Z,5.01
2019-01-16T05:15:14.269Z,5.01
2019-01-16T05:18:09.001Z,5.01
2019-01-16T05:20:59.713Z,5.11
2019-01-16T05:23:41.115Z,5.10
2019-01-16T05:26:41.290Z,5.11
2019-01-16T05:29:28.063Z,5.09
2019-01-16T05:32:18.622Z,5.01
2019-01-16T05:35:21.387Z,5.06
2019-01-16T05:38:11.959Z,5.16
2019-01-16T05:41:05.644Z,5.29
2019-01-16T05:44:05.672Z,5.29
2019-01-16T05:46:56.369Z,5.32
2019-01-16T05:49:56.315Z,5.13
2019-01-16T05:52:44.633Z,5.13
2019-01-16T05:55:35.393Z,5.16
2019-01-16T05:58:17.925Z,5.23
2019-01-16T06:01:07.387Z,5.27
2019-01-16T06:03:58.087Z,5.22
2019-01-16T06:06:49.531Z,5.19
2019-01-16T06:09:39.374Z,5.21
2019-01-16T06:12:35.752Z,5.21
2019-01-16T06:15:25.683Z,5.24
2019-01-16T06:18:16.288Z,5.22
2019-01-16T06:21:08.449Z,5.24
2019-01-16T06:24:05.312Z,5.25
2019-01-16T06:26:51.395Z,5.25
2019-01-16T06:29:41.089Z,5.25
2019-01-16T06:32:34.632Z,5.29
2019-01-16T06:35:35.351Z,5.28
2019-01-16T06:38:43.111Z,5.18
2019-01-16T06:41:38.410Z,5.20
2019-01-16T06:44:30.774Z,5.22
2019-01-16T06:47:10.704Z,5.22
2019-01-16T06:50:16.520Z,5.23
2019-01-16T06:53:02.453Z,5.19
2019-01-16T06:56:09.337Z,5.07
2019-01-16T06:59:03.334Z,5.09
2019-01-16T07:01:53.302Z,5.09
2019-01-16T07:04:43.398Z,5.19
2019-01-16T07:07:43.685Z,5.18
2019-01-16T07:10:34.661Z,5.18
2019-01-16T07:13:25.597Z,5.18
2019-01-16T07:16:22.505Z,5.19
2019-01-16T07:19:18.675Z,5.17
2019-01-16T07:22:13.903Z,5.30
2019-01-16T07:25:04.784Z,5.25
2019-01-16T07:28:09.148Z,5.25
2019-01-16T07:31:19.005Z,5.26
2019-01-16T07:34:07.951Z,5.18
2019-01-16T07:37:01.513Z,5.22
2019-01-16T07:39:52.266Z,5.23
2019-01-16T07:42:47.600Z,5.24
2019-01-16T07:45:44.392Z,5.22
2019-01-16T07:48:28.332Z,5.36
2019-01-16T07:51:12.624Z,5.30
2019-01-16T07:54:03.414Z,5.35
2019-01-16T07:56:56.890Z,5.36
2019-01-16T07:59:40.385Z,5.45
2019-01-16T08:02:43.444Z,5.45
2019-01-16T08:05:43.368Z,5.51
2019-01-16T08:08:43.349Z,5.54
2019-01-16T08:11:55.422Z,5.56
2019-01-16T08:14:45.434Z,5.61
2019-01-16T08:17:36.386Z,5.61
2019-01-16T08:20:30.125Z,5.62
2019-01-16T08:23:22.876Z,5.62
2019-01-16T08:26:14.783Z,5.76
2019-01-16T08:29:15.291Z,5.75
2019-01-16T08:32:21.606Z,5.73
2019-01-16T08:35:21.514Z,5.76
2019-01-16T08:38:15.295Z,5.71
2019-01-16T08:41:06.104Z,5.68
2019-01-16T08:44:01.603Z,5.69
2019-01-16T08:47:04.878Z,5.65
2019-01-16T08:49:55.262Z,5.55
2019-01-16T08:52:50.707Z,5.55
2019-01-16T08:55:41.788Z,5.63
2019-01-16T08:58:26.291Z,5.63
2019-01-16T09:01:14.821Z,5.57
2019-01-16T09:04:04.895Z,5.62
2019-01-16T09:07:06.664Z,5.54
2019-01-16T09:20:50.509Z,5.82
2019-01-16T09:23:34.382Z,5.98
2019-01-16T09:26:31.330Z,6.13
2019-01-16T09:29:25.121Z,6.31
2019-01-16T09:32:14.841Z,6.31
2019-01-16T09:35:16.468Z,6.38
2019-01-16T09:38:24.019Z,6.47
2019-01-16T09:41:22.236Z,6.47
2019-01-16T09:44:38.296Z,6.42
2019-01-16T09:47:29.214Z,6.42
2019-01-16T09:50:15.301Z,6.44
2019-01-16T09:52:57.291Z,6.46
2019-01-16T09:55:51.280Z,6.55
2019-01-16T09:58:41.265Z,6.69
2019-01-16T10:01:29.558Z,6.72
2019-01-16T10:04:19.451Z,6.70
2019-01-16T10:07:11.429Z,6.59
2019-01-16T10:10:08.394Z,6.36
2019-01-16T10:13:06.895Z,6.24
2019-01-16T10:16:01.047Z,6.24
2019-01-16T10:18:50.053Z,6.33
2019-01-16T10:21:50.292Z,6.34
2019-01-16T10:24:44.308Z,6.21
2019-01-16T10:27:44.380Z,6.11
2019-01-16T10:30:52.066Z,6.23
2019-01-16T10:33:47.372Z,6.23
2019-01-16T10:36:44.462Z,6.20
2019-01-16T10:39:40.002Z,6.20
2019-01-16T10:42:29.539Z,6.18
2019-01-16T10:45:23.394Z,6.41
2019-01-16T10:48:17.356Z,6.53
2019-01-16T10:51:17.973Z,6.56
2019-01-16T10:59:03.787Z,6.58
2019-01-16T11:02:07.981Z,6.52
2019-01-16T11:04:57.614Z,6.42
2019-01-16T11:07:49.799Z,6.43
2019-01-16T11:10:39.493Z,6.42
2019-01-16T11:13:37.618Z,6.55
2019-01-16T11:16:23.301Z,6.53
2019-01-16T11:19:14.291Z,6.46
2019-01-16T11:22:11.295Z,6.52
2019-01-16T11:24:54.963Z,6.57
2019-01-16T11:27:59.127Z,6.57
2019-01-16T11:30:48.682Z,6.38
2019-01-16T11:33:29.652Z,6.57
2019-01-16T11:36:21.518Z,6.50
2019-01-16T11:39:21.771Z,6.36
2019-01-16T11:42:13.683Z,6.56
2019-01-16T11:45:02.541Z,7.03
2019-01-16T11:47:59.412Z,7.31
2019-01-16T11:50:58.300Z,7.32
2019-01-16T11:53:50.134Z,7.32
2019-01-16T11:56:41.873Z,7.12
2019-01-16T11:59:55.654Z,7.25
2019-01-16T12:03:11.767Z,7.34
2019-01-16T12:06:14.537Z,7.36
2019-01-16T12:09:08.306Z,6.91
2019-01-16T12:12:02.483Z,6.81
2019-01-16T12:14:59.448Z,6.71
2019-01-16T12:17:40.675Z,6.66
2019-01-16T12:20:42.505Z,6.82
2019-01-16T12:23:28.314Z,6.78
2019-01-16T12:26:20.314Z,6.78
2019-01-16T12:29:13.572Z,6.69
2019-01-16T12:32:04.285Z,6.60
2019-01-16T12:34:54.174Z,6.61
2019-01-16T12:37:54.285Z,6.47
2019-01-16T12:40:49.562Z,6.61
2019-01-16T12:43:47.617Z,6.66
2019-01-16T12:46:54.301Z,6.50
2019-01-16T12:50:25.201Z,6.64
2019-01-16T12:53:15.988Z,6.34
2019-01-16T12:56:11.287Z,6.38
2019-01-16T12:59:02.437Z,6.37
2019-01-16T13:01:58.332Z,6.33
2019-01-16T13:04:52.402Z,6.33
2019-01-16T13:07:42.438Z,6.29
2019-01-16T13:10:29.770Z,6.35
2019-01-16T13:13:11.808Z,6.35
2019-01-16T13:16:13.938Z,6.18
2019-01-16T13:19:04.940Z,6.22
2019-01-16T13:22:11.426Z,6.83
2019-01-16T13:25:21.409Z,6.65
2019-01-16T13:28:29.782Z,6.44
2019-01-16T13:31:25.111Z,6.44
2019-01-16T13:34:28.413Z,6.55
2019-01-16T13:37:15.388Z,6.41
2019-01-16T13:40:08.463Z,6.37
2019-01-16T13:43:05.665Z,6.21
2019-01-16T13:46:06.143Z,6.21
2019-01-16T13:48:53.658Z,6.07
2019-01-16T13:51:53.584Z,5.88
2019-01-16T13:55:00.296Z,6.01
2019-01-16T13:57:49.960Z,6.07
2019-01-16T14:00:39.129Z,5.97
2019-01-16T14:03:35.077Z,5.99
2019-01-16T14:06:25.289Z,6.01
2019-01-16T14:09:19.451Z,5.84
2019-01-16T14:12:10.320Z,5.84
2019-01-16T14:15:04.305Z,5.84
2019-01-16T14:17:55.492Z,5.84
2019-01-16T14:20:47.555Z,5.71
2019-01-16T14:23:38.489Z,5.71
2019-01-16T14:26:28.639Z,5.63
2019-01-16T14:29:30.659Z,5.63
2019-01-16T14:32:21.292Z,5.68
2019-01-16T14:35:13.655Z,5.54
2019-01-16T14:38:25.298Z,5.65
2019-01-16T14:41:33.314Z,5.62
2019-01-16T14:44:24.412Z,5.77
2019-01-16T14:47:07.979Z,5.81
2019-01-16T14:50:04.364Z,5.81
2019-01-16T14:53:05.706Z,5.76
2019-01-16T14:56:06.160Z,5.70
2019-01-16T14:59:13.830Z,5.71
2019-01-16T15:02:23.315Z,5.67
2019-01-16T17:44:09.154Z,4.46
2019-01-16T17:47:07.703Z,4.46
2019-01-16T17:50:07.436Z,4.44
2019-01-16T17:53:13.653Z,4.44
2019-01-16T17:56:03.891Z,4.44
2019-01-16T17:59:03.568Z,4.44
2019-01-16T18:01:57.500Z,4.43
2019-01-16T18:04:54.313Z,4.47
2019-01-16T18:07:34.483Z,4.46
2019-01-16T18:10:30.545Z,4.50
2019-01-16T18:13:32.808Z,4.50
2019-01-16T18:16:16.286Z,4.52
2019-01-16T18:19:10.147Z,4.57
2019-01-16T18:22:03.555Z,4.52
2019-01-16T18:24:50.989Z,4.52
2019-01-16T18:27:47.284Z,4.63
2019-01-16T18:30:36.461Z,4.63
2019-01-16T18:33:21.285Z,4.76
2019-01-16T18:36:06.413Z,4.76
2019-01-16T18:39:06.473Z,4.91
2019-01-16T18:42:10.717Z,4.80
2019-01-16T18:45:02.709Z,4.80
2019-01-16T18:47:53.574Z,4.74
2019-01-16T18:50:45.282Z,4.73
2019-01-16T18:53:34.613Z,4.71
2019-01-16T18:56:25.417Z,4.81
2019-01-16T18:59:10.683Z,4.78
2019-01-16T19:02:20.551Z,4.78
2019-01-16T19:05:13.702Z,4.71
2019-01-16T19:08:23.273Z,4.77
2019-01-16T19:11:12.563Z,4.75
2019-01-16T19:14:09.577Z,4.76
2019-01-16T19:17:00.246Z,4.74
2019-01-16T19:19:53.946Z,4.68
2019-01-16T19:22:41.291Z,4.60
2019-01-16T19:25:36.637Z,4.58
2019-01-16T19:28:33.935Z,4.56
2019-01-16T19:31:25.289Z,4.60
2019-01-16T19:34:08.408Z,4.63
2019-01-16T19:36:58.456Z,4.67
2019-01-16T19:39:47.943Z,4.78
2019-01-16T19:42:37.597Z,4.71
2019-01-16T19:45:28.740Z,4.71
2019-01-16T19:48:38.535Z,4.72
2019-01-16T19:51:32.356Z,4.75
2019-01-16T19:54:26.710Z,4.88
2019-01-16T19:57:28.278Z,4.88
2019-01-16T20:00:22.454Z,4.87
2019-01-16T20:03:13.297Z,4.88
2019-01-16T20:06:07.358Z,4.88
2019-01-16T20:08:57.499Z,4.94
2019-01-16T20:11:45.286Z,4.94
2019-01-16T20:14:34.598Z,4.88
2019-01-16T20:17:34.630Z,4.84
2019-01-16T20:20:26.287Z,4.86
2019-01-16T20:23:16.989Z,4.87
2019-01-16T20:26:07.938Z,4.87
2019-01-16T20:29:17.289Z,4.87
2019-01-16T20:31:57.421Z,4.90
2019-01-16T20:34:46.769Z,4.99
2019-01-16T20:37:40.677Z,4.99
2019-01-16T20:40:31.574Z,5.03
2019-01-16T20:43:24.427Z,5.02
2019-01-16T20:46:26.355Z,5.04
2019-01-16T20:49:26.296Z,5.04
2019-01-16T20:52:14.619Z,5.01
2019-01-16T20:55:04.356Z,5.00
2019-01-16T20:58:10.595Z,5.16
2019-01-16T21:00:57.752Z,5.16
2019-01-16T21:03:48.518Z,5.20
2019-01-16T21:06:34.869Z,5.30
2019-01-16T21:09:26.637Z,5.39
2019-01-16T21:12:17.616Z,5.41
2019-01-16T21:15:01.070Z,5.41
2019-01-16T21:17:50.749Z,5.43
2019-01-16T21:20:32.420Z,5.47
2019-01-16T21:23:14.135Z,5.52
2019-01-16T21:26:15.548Z,5.52
2019-01-16T21:29:09.529Z,5.55
2019-01-16T21:31:59.613Z,5.52
2019-01-16T21:35:02.425Z,5.57
2019-01-16T21:37:56.359Z,5.65
2019-01-16T21:40:58.501Z,5.65
2019-01-16T21:43:55.619Z,5.69
2019-01-16T21:46:55.935Z,5.73
2019-01-16T21:49:45.641Z,5.74
2019-01-16T21:52:25.272Z,5.74
2019-01-16T21:55:18.947Z,5.75
2019-01-16T21:58:12.635Z,5.71
2019-01-16T22:00:50.973Z,5.69
2019-01-16T22:03:44.700Z,5.65
2019-01-16T22:06:51.074Z,5.71
2019-01-16T22:09:41.660Z,5.71
2019-01-16T22:12:43.138Z,5.72
2019-01-16T22:15:36.780Z,5.71
2019-01-16T22:18:25.672Z,5.74
2019-01-16T22:21:16.524Z,5.73
2019-01-16T22:24:15.687Z,5.71
2019-01-16T22:27:04.366Z,5.73
2019-01-16T22:29:54.314Z,5.81
2019-01-16T22:32:44.725Z,5.86
2019-01-16T22:35:35.276Z,5.93
2019-01-16T22:38:44.348Z,5.94
2019-01-16T22:41:33.722Z,5.88
2019-01-16T22:44:29.270Z,5.87
2019-01-16T22:47:38.766Z,5.86
2019-01-16T22:50:32.274Z,5.90
2019-01-16T22:53:34.851Z,5.92
2019-01-16T22:56:27.297Z,5.92
2019-01-16T22:59:16.943Z,5.92
2019-01-16T23:02:10.809Z,5.90
2019-01-16T23:05:01.958Z,5.94
2019-01-16T23:07:48.644Z,5.99
2019-01-16T23:10:52.932Z,5.97
2019-01-16T23:13:59.112Z,5.95
2019-01-16T23:16:47.515Z,5.93
2019-01-16T23:19:38.961Z,5.92
2019-01-16T23:22:45.645Z,5.96
2019-01-16T23:25:46.368Z,5.96
2019-01-16T23:28:45.489Z,6.04
2019-01-16T23:31:44.314Z,6.07
2019-01-16T23:34:35.317Z,6.13
2019-01-16T23:37:24.288Z,6.13
2019-01-16T23:40:15.523Z,6.15
2019-01-16T23:43:09.491Z,6.02
2019-01-16T23:46:00.196Z,6.02
2019-01-16T23:48:51.114Z,6.06
2019-01-16T23:52:02.207Z,6.02
2019-01-16T23:54:55.442Z,5.92
2019-01-16T23:57:56.475Z,5.92
